Time;durP1;ratioP1;P1;durP2;ratioP2;P2;SDS_P1;SDS_P2;PMS_P1;PMS_P2;Temp;Humidity;BMP_temperature;BMP_pressure;BME280_temperature;BME280_humidity;BME280_pressure;Samples;Min_cycle;Max_cycle;Signal;HPM_P1;HPM_P2
2023/03/13 00:01:28;;;;;;;22.85;5.35;;;7.90;99.90;;;;;;5087738;28;20041;-84
2023/03/13 00:03:54;;;;;;;18.83;4.75;;;7.90;99.90;;;;;;5105036;28;20037;-84
2023/03/13 00:06:34;;;;;;;25.73;6.22;;;7.90;99.90;;;;;;5104426;28;20045;-84
2023/03/13 00:09:03;;;;;;;26.90;4.88;;;7.90;99.90;;;;;;5071006;28;20106;-84
2023/03/13 00:11:30;;;;;;;23.92;4.93;;;7.90;99.90;;;;;;5070772;28;20497;-84
2023/03/13 00:14:00;;;;;;;26.88;4.93;;;7.90;99.90;;;;;;5072009;28;20475;-85
2023/03/13 00:16:28;;;;;;;27.23;5.45;;;7.90;99.90;;;;;;5072356;28;20452;-84
2023/03/13 00:18:56;;;;;;;31.17;5.80;;;7.80;99.90;;;;;;5071861;28;20475;-85
2023/03/13 00:21:25;;;;;;;36.42;6.78;;;7.90;99.90;;;;;;5055384;28;20045;-84
2023/03/13 00:23:52;;;;;;;24.98;5.32;;;7.90;99.90;;;;;;5072323;28;20052;-85
2023/03/13 00:26:24;;;;;;;37.78;5.75;;;7.90;99.90;;;;;;5088070;28;20045;-85
2023/03/13 00:28:52;;;;;;;30.83;5.18;;;7.80;99.90;;;;;;5088205;28;20169;-85
2023/03/13 00:31:19;;;;;;;34.83;5.93;;;7.80;99.90;;;;;;5087649;28;20509;-85
2023/03/13 00:33:48;;;;;;;37.88;6.35;;;7.80;99.90;;;;;;5070710;28;20043;-85
2023/03/13 00:36:18;;;;;;;29.85;5.47;;;7.80;99.90;;;;;;5070959;28;20562;-84
2023/03/13 00:38:45;;;;;;;31.63;5.10;;;7.80;99.90;;;;;;5070831;28;20040;-85
2023/03/13 00:41:15;;;;;;;30.70;5.80;;;7.70;99.90;;;;;;5104258;28;20051;-85
2023/03/13 00:43:43;;;;;;;30.17;5.18;;;7.70;99.90;;;;;;5070348;28;20448;-85
2023/03/13 00:46:12;;;;;;;30.52;5.57;;;7.70;99.90;;;;;;5120800;28;20413;-85
2023/03/13 00:48:38;;;;;;;30.15;5.75;;;7.70;99.90;;;;;;5070665;28;20086;-86
2023/03/13 00:51:06;;;;;;;35.03;6.32;;;7.60;99.90;;;;;;5104643;28;20032;-85
2023/03/13 00:53:33;;;;;;;40.88;6.40;;;7.70;99.90;;;;;;5086785;28;20099;-84
2023/03/13 00:56:02;;;;;;;30.00;5.68;;;7.60;99.90;;;;;;5087171;28;20044;-85
2023/03/13 00:58:30;;;;;;;34.25;5.35;;;7.60;99.90;;;;;;5103492;28;20383;-85
2023/03/13 01:01:04;;;;;;;35.47;5.05;;;7.60;99.90;;;;;;5070507;28;20420;-85
2023/03/13 01:03:31;;;;;;;35.72;4.70;;;7.60;99.90;;;;;;5085900;28;20566;-84
2023/03/13 01:05:59;;;;;;;47.58;5.63;;;7.60;99.90;;;;;;5103755;28;20045;-85
2023/03/13 01:08:27;;;;;;;33.78;6.25;;;7.60;99.90;;;;;;5070545;28;20040;-85
2023/03/13 01:11:01;;;;;;;35.88;5.53;;;7.60;99.90;;;;;;5070167;28;20041;-85
2023/03/13 01:13:29;;;;;;;30.60;4.78;;;7.60;99.90;;;;;;5086374;28;20508;-84
2023/03/13 01:15:56;;;;;;;36.05;5.10;;;7.60;99.90;;;;;;5070315;28;20446;-84
2023/03/13 01:18:22;;;;;;;29.13;4.82;;;7.60;99.90;;;;;;5086952;28;20156;-85
2023/03/13 01:20:49;;;;;;;38.30;5.72;;;7.60;99.90;;;;;;5069120;28;20045;-84
2023/03/13 01:23:16;;;;;;;25.38;5.00;;;7.60;99.90;;;;;;5070188;28;20383;-84
2023/03/13 01:25:43;;;;;;;27.80;5.30;;;7.60;99.90;;;;;;5070123;28;20040;-85
2023/03/13 01:28:09;;;;;;;26.42;5.20;;;7.60;99.90;;;;;;5069897;28;20099;-84
2023/03/13 01:30:36;;;;;;;38.42;5.05;;;7.60;99.90;;;;;;5086390;28;20048;-84
2023/03/13 01:33:03;;;;;;;31.42;5.75;;;7.60;99.90;;;;;;5070472;28;20499;-85
2023/03/13 01:35:30;;;;;;;23.70;4.78;;;7.70;99.90;;;;;;5086595;28;20136;-84
2023/03/13 01:37:56;;;;;;;27.67;4.38;;;7.60;99.90;;;;;;5086487;28;20402;-84
2023/03/13 01:40:23;;;;;;;30.48;5.15;;;7.60;99.90;;;;;;5086336;28;20033;-85
2023/03/13 01:42:55;;;;;;;31.25;4.55;;;7.60;99.90;;;;;;5102624;28;20072;-85
2023/03/13 01:46:04;;;;;;;31.60;5.10;;;7.60;99.90;;;;;;5070141;28;20028;-86
2023/03/13 01:48:52;;;;;;;25.25;4.45;;;7.60;99.90;;;;;;5086883;28;20045;-85
2023/03/13 01:52:00;;;;;;;30.20;5.20;;;7.60;99.90;;;;;;5104201;28;20045;-85
2023/03/13 01:54:34;;;;;;;24.70;5.60;;;7.60;99.90;;;;;;5102735;28;20044;-84
2023/03/13 01:57:12;;;;;;;22.58;4.35;;;7.60;99.90;;;;;;5069814;28;20048;-85
2023/03/13 02:00:11;;;;;;;26.58;4.50;;;7.60;99.90;;;;;;5069245;28;20045;-84
2023/03/13 02:02:41;;;;;;;25.98;4.68;;;7.60;99.90;;;;;;5069324;28;20040;-84
2023/03/13 02:05:08;;;;;;;28.20;4.88;;;7.60;99.90;;;;;;5085978;28;20048;-85
2023/03/13 02:07:41;;;;;;;25.42;4.18;;;7.60;99.90;;;;;;5085895;28;20485;-85
2023/03/13 02:10:10;;;;;;;19.98;4.30;;;7.60;99.90;;;;;;5086043;28;20041;-85
2023/03/13 02:12:39;;;;;;;22.58;4.18;;;7.60;99.90;;;;;;5085940;28;20094;-85
2023/03/13 02:15:10;;;;;;;26.63;4.53;;;7.60;99.90;;;;;;5086160;28;20493;-85
2023/03/13 02:17:39;;;;;;;32.65;4.78;;;7.60;99.90;;;;;;5069500;28;20052;-85
2023/03/13 02:20:07;;;;;;;22.63;4.32;;;7.70;99.90;;;;;;5069368;28;20048;-85
2023/03/13 02:22:42;;;;;;;21.88;4.95;;;7.60;99.90;;;;;;5069016;28;20481;-84
2023/03/13 02:25:45;;;;;;;30.65;4.82;;;7.60;99.90;;;;;;5102447;28;20040;-85
2023/03/13 02:28:33;;;;;;;24.40;4.28;;;7.70;99.90;;;;;;5069281;28;20616;-85
2023/03/13 02:31:01;;;;;;;23.48;4.55;;;7.70;99.90;;;;;;5102097;28;20055;-85
2023/03/13 02:33:31;;;;;;;20.70;4.47;;;7.80;99.90;;;;;;5069015;28;20041;-85
2023/03/13 02:36:01;;;;;;;29.25;4.38;;;7.80;99.90;;;;;;5069052;28;20047;-85
2023/03/13 02:38:30;;;;;;;32.17;4.75;;;7.80;99.90;;;;;;5069196;28;20041;-85
2023/03/13 02:40:59;;;;;;;26.70;4.65;;;7.80;99.90;;;;;;5069005;28;20037;-84
2023/03/13 02:43:36;;;;;;;25.90;5.13;;;7.80;99.90;;;;;;5068978;28;20048;-85
2023/03/13 02:46:12;;;;;;;24.70;5.03;;;7.80;99.90;;;;;;5085388;28;20041;-85
2023/03/13 02:48:45;;;;;;;26.92;4.90;;;7.80;99.90;;;;;;5068800;28;20041;-85
2023/03/13 02:51:30;;;;;;;24.60;4.85;;;7.90;99.90;;;;;;5069252;28;20509;-85
2023/03/13 02:54:05;;;;;;;25.20;4.30;;;7.80;99.90;;;;;;5102259;28;20059;-85
2023/03/13 02:56:35;;;;;;;22.42;4.70;;;7.90;99.90;;;;;;5069121;28;20509;-85
2023/03/13 02:59:01;;;;;;;21.77;3.92;;;7.90;99.90;;;;;;5068791;28;20049;-85
2023/03/13 03:01:28;;;;;;;21.10;4.30;;;7.90;99.90;;;;;;5085364;28;20123;-86
2023/03/13 03:03:55;;;;;;;23.17;4.25;;;7.90;99.90;;;;;;5085114;28;20080;-85
2023/03/13 03:06:21;;;;;;;20.88;3.97;;;7.90;99.90;;;;;;5069102;28;20045;-86
2023/03/13 03:08:48;;;;;;;12.93;3.63;;;7.90;99.90;;;;;;5085405;28;20041;-85
2023/03/13 03:11:15;;;;;;;13.57;3.03;;;7.90;99.90;;;;;;5085424;28;20042;-86
2023/03/13 03:13:42;;;;;;;14.02;3.33;;;8.00;99.90;;;;;;5068819;28;20500;-86
2023/03/13 03:16:11;;;;;;;18.15;3.45;;;8.00;99.90;;;;;;5068753;28;20041;-86
2023/03/13 03:18:38;;;;;;;12.20;3.13;;;8.00;99.90;;;;;;5052288;28;20091;-86
2023/03/13 03:21:05;;;;;;;17.35;3.47;;;8.00;99.90;;;;;;5052243;28;20134;-86
2023/03/13 03:23:36;;;;;;;23.27;4.10;;;8.00;99.90;;;;;;5085029;28;20052;-86
2023/03/13 03:26:04;;;;;;;13.73;3.22;;;8.00;99.90;;;;;;5068078;28;20133;-86
2023/03/13 03:28:31;;;;;;;15.20;3.10;;;8.00;99.90;;;;;;5068557;28;20047;-86
2023/03/13 03:31:03;;;;;;;9.20;2.65;;;8.10;99.90;;;;;;5068236;28;20084;-86
2023/03/13 03:33:30;;;;;;;9.68;2.50;;;8.10;99.90;;;;;;5068431;28;20478;-86
2023/03/13 03:36:12;;;;;;;11.23;2.90;;;8.10;99.90;;;;;;5084906;28;20040;-86
2023/03/13 03:38:40;;;;;;;8.57;3.00;;;8.10;99.90;;;;;;5102044;28;20040;-86
2023/03/13 03:41:08;;;;;;;8.15;2.80;;;8.10;99.90;;;;;;5084382;28;20033;-86
2023/03/13 03:43:35;;;;;;;8.15;2.65;;;8.20;99.90;;;;;;5052427;28;20040;-85
2023/03/13 03:46:02;;;;;;;8.73;2.30;;;8.10;99.90;;;;;;5088068;28;20059;-86
2023/03/13 03:48:29;;;;;;;7.32;2.30;;;8.20;99.90;;;;;;5105385;28;20045;-86
2023/03/13 03:50:55;;;;;;;6.70;2.15;;;8.20;99.90;;;;;;5071832;28;20124;-86
2023/03/13 03:53:22;;;;;;;6.22;2.10;;;8.30;99.90;;;;;;5088328;28;20087;-86
2023/03/13 03:55:49;;;;;;;12.77;2.63;;;8.30;99.90;;;;;;5106151;28;20041;-86
2023/03/13 03:58:16;;;;;;;10.27;2.55;;;8.30;99.90;;;;;;5088772;28;20033;-86
2023/03/13 04:00:47;;;;;;;7.53;2.97;;;8.30;99.90;;;;;;5072599;28;20048;-86
2023/03/13 04:03:15;;;;;;;5.28;2.00;;;8.30;99.90;;;;;;5105346;28;20048;-86
2023/03/13 04:05:42;;;;;;;10.73;2.30;;;8.30;99.90;;;;;;5104775;28;20049;-86
2023/03/13 04:08:09;;;;;;;7.18;2.53;;;8.00;99.90;;;;;;5071727;28;20124;-86
2023/03/13 04:10:36;;;;;;;9.15;2.40;;;8.40;99.90;;;;;;5071609;28;20064;-86
2023/03/13 04:13:03;;;;;;;8.48;2.45;;;8.40;99.90;;;;;;5071671;28;20501;-86
2023/03/13 04:15:30;;;;;;;8.18;2.63;;;8.40;99.90;;;;;;5068360;28;20371;-86
2023/03/13 04:17:56;;;;;;;6.15;2.45;;;8.40;99.90;;;;;;5100949;28;20041;-86
2023/03/13 04:20:23;;;;;;;9.40;2.78;;;8.40;99.90;;;;;;5071364;28;20041;-86
2023/03/13 04:22:50;;;;;;;8.23;3.20;;;8.50;99.90;;;;;;5088117;28;20179;-85
2023/03/13 04:25:17;;;;;;;5.38;2.60;;;8.50;99.90;;;;;;5055137;28;20245;-83
2023/03/13 04:27:43;;;;;;;7.82;2.75;;;8.50;99.90;;;;;;5055070;28;20037;-84
2023/03/13 04:30:11;;;;;;;7.45;3.13;;;8.50;99.90;;;;;;5054830;28;20056;-83
2023/03/13 04:32:37;;;;;;;8.57;3.42;;;8.50;99.90;;;;;;5054816;28;20044;-84
2023/03/13 04:35:04;;;;;;;11.90;3.10;;;8.60;99.90;;;;;;5071457;28;20041;-84
2023/03/13 04:37:31;;;;;;;8.18;2.92;;;8.60;99.90;;;;;;5054878;28;20520;-84
2023/03/13 04:39:58;;;;;;;10.32;3.15;;;8.60;99.90;;;;;;5071379;28;20041;-84
2023/03/13 04:42:25;;;;;;;8.35;3.40;;;8.70;99.90;;;;;;5087518;28;20076;-84
2023/03/13 04:44:51;;;;;;;7.05;2.60;;;8.70;99.90;;;;;;5087594;28;20560;-84
2023/03/13 04:47:18;;;;;;;5.53;2.92;;;8.70;99.90;;;;;;5103916;28;20148;-84
2023/03/13 04:49:45;;;;;;;5.60;2.55;;;8.80;99.90;;;;;;5087865;28;20041;-84
2023/03/13 04:52:12;;;;;;;7.55;2.60;;;8.90;99.90;;;;;;5087154;28;20505;-84
2023/03/13 04:54:38;;;;;;;6.80;2.70;;;8.90;99.90;;;;;;5087310;28;20481;-84
2023/03/13 04:57:05;;;;;;;7.35;2.70;;;9.00;99.90;;;;;;5086691;28;20055;-84
2023/03/13 04:59:32;;;;;;;5.32;2.45;;;9.00;99.90;;;;;;5087330;28;20049;-84
2023/03/13 05:01:59;;;;;;;6.50;2.95;;;9.10;99.90;;;;;;5070931;28;20129;-84
2023/03/13 05:04:26;;;;;;;6.95;2.85;;;9.10;99.90;;;;;;5103637;28;20136;-84
2023/03/13 05:06:52;;;;;;;6.28;3.03;;;9.10;99.90;;;;;;5070589;28;20517;-84
2023/03/13 05:09:19;;;;;;;6.82;3.33;;;9.10;99.90;;;;;;5070533;28;20045;-84
2023/03/13 05:11:46;;;;;;;7.10;3.05;;;9.20;99.90;;;;;;5087054;28;20048;-84
2023/03/13 05:14:12;;;;;;;9.70;3.50;;;9.20;99.90;;;;;;5069713;28;20036;-83
2023/03/13 05:16:39;;;;;;;6.22;3.42;;;9.30;99.90;;;;;;5069900;28;20091;-84
2023/03/13 05:19:06;;;;;;;8.07;3.58;;;9.30;99.90;;;;;;5069299;28;20132;-83
2023/03/13 05:21:32;;;;;;;6.30;2.70;;;9.40;99.90;;;;;;5069427;28;20037;-84
2023/03/13 05:23:59;;;;;;;5.63;3.22;;;9.40;99.90;;;;;;5070381;28;20045;-86
2023/03/13 05:26:26;;;;;;;9.40;3.30;;;9.50;99.90;;;;;;5069685;28;20079;-87
2023/03/13 05:28:53;;;;;;;7.40;3.80;;;9.40;99.90;;;;;;5103101;28;20036;-87
2023/03/13 05:31:19;;;;;;;8.18;4.00;;;9.50;99.90;;;;;;5070123;28;20036;-86
2023/03/13 05:33:46;;;;;;;6.78;4.07;;;9.50;99.90;;;;;;5086221;28;20064;-87
2023/03/13 05:36:13;;;;;;;6.28;3.40;;;9.60;99.90;;;;;;5086760;28;20041;-86
2023/03/13 05:38:40;;;;;;;9.82;3.50;;;9.60;99.90;;;;;;5086460;28;20049;-87
2023/03/13 05:41:06;;;;;;;8.63;3.53;;;9.60;99.90;;;;;;5085743;28;20041;-86
2023/03/13 05:43:33;;;;;;;9.80;4.13;;;9.70;99.90;;;;;;5086591;28;20523;-87
2023/03/13 05:46:00;;;;;;;8.40;4.45;;;9.90;99.90;;;;;;5070105;28;20124;-86
2023/03/13 05:48:26;;;;;;;9.55;4.13;;;9.90;99.90;;;;;;5086144;28;20127;-85
2023/03/13 05:50:53;;;;;;;12.00;4.97;;;10.00;99.90;;;;;;5065877;28;20037;-86
2023/03/13 05:53:20;;;;;;;9.65;4.15;;;10.10;99.90;;;;;;5102401;28;20049;-88
2023/03/13 05:55:46;;;;;;;11.68;4.20;;;10.20;99.90;;;;;;5070371;28;20078;-86
2023/03/13 05:58:13;;;;;;;11.25;4.47;;;10.20;99.90;;;;;;5069576;28;20055;-86
2023/03/13 06:00:42;;;;;;;7.72;3.97;;;10.20;99.90;;;;;;5069859;28;20507;-87
2023/03/13 06:03:09;;;;;;;9.02;4.05;;;10.20;99.90;;;;;;5086781;28;20668;-87
2023/03/13 06:05:35;;;;;;;9.52;3.58;;;10.20;99.90;;;;;;5070297;28;20087;-87
2023/03/13 06:08:02;;;;;;;8.60;3.67;;;10.30;99.90;;;;;;5069725;28;20103;-86
2023/03/13 06:10:29;;;;;;;7.72;3.33;;;10.30;99.90;;;;;;5052350;28;20064;-85
2023/03/13 06:12:56;;;;;;;8.15;3.28;;;10.40;99.90;;;;;;5068838;28;20041;-84
2023/03/13 06:15:22;;;;;;;6.72;3.30;;;10.40;99.90;;;;;;5069053;28;20541;-84
2023/03/13 06:17:49;;;;;;;7.40;2.88;;;10.40;99.90;;;;;;5069853;28;20032;-84
2023/03/13 06:20:16;;;;;;;7.05;3.22;;;10.40;99.90;;;;;;5052577;28;20059;-85
2023/03/13 06:22:43;;;;;;;6.82;2.70;;;10.40;99.90;;;;;;5085568;28;20070;-85
2023/03/13 06:25:09;;;;;;;4.72;2.50;;;10.50;99.90;;;;;;5069009;28;20127;-85
2023/03/13 06:27:36;;;;;;;6.47;3.25;;;10.50;99.90;;;;;;5068937;28;20037;-86
2023/03/13 06:30:03;;;;;;;7.45;3.15;;;10.50;99.90;;;;;;5069523;28;20044;-86
2023/03/13 06:32:30;;;;;;;5.95;2.78;;;10.60;99.90;;;;;;5085888;28;20071;-85
2023/03/13 06:34:57;;;;;;;6.82;3.30;;;10.60;99.90;;;;;;5086134;28;20490;-85
2023/03/13 06:37:23;;;;;;;11.20;4.00;;;10.60;99.90;;;;;;5064994;28;20049;-86
2023/03/13 06:39:50;;;;;;;7.82;2.85;;;10.60;99.90;;;;;;5101813;28;20552;-85
2023/03/13 06:42:17;;;;;;;8.65;3.15;;;10.60;99.90;;;;;;5085538;28;20477;-86
2023/03/13 06:44:43;;;;;;;6.70;2.67;;;10.70;99.90;;;;;;5066154;28;20037;-85
2023/03/13 06:47:10;;;;;;;6.50;3.22;;;10.70;99.90;;;;;;5098165;28;20103;-86
2023/03/13 06:49:37;;;;;;;10.23;3.33;;;10.60;99.90;;;;;;5085259;28;20051;-86
2023/03/13 06:52:04;;;;;;;7.93;3.28;;;10.70;99.90;;;;;;5084821;28;20096;-84
2023/03/13 06:54:30;;;;;;;9.55;3.88;;;10.70;99.90;;;;;;5069211;28;20043;-85
2023/03/13 06:56:57;;;;;;;7.85;3.50;;;10.80;99.90;;;;;;5085899;28;20524;-85
2023/03/13 06:59:24;;;;;;;7.18;3.10;;;10.80;99.90;;;;;;5101806;28;20037;-85
2023/03/13 07:01:50;;;;;;;8.57;2.72;;;10.80;99.90;;;;;;5086031;28;20036;-85
2023/03/13 07:04:18;;;;;;;6.63;2.60;;;10.90;99.90;;;;;;5085841;28;20047;-84
2023/03/13 07:06:45;;;;;;;6.85;2.70;;;10.90;99.90;;;;;;5068487;28;20048;-84
2023/03/13 07:09:12;;;;;;;12.05;3.10;;;10.90;99.90;;;;;;5085437;28;20045;-84
2023/03/13 07:11:39;;;;;;;7.07;3.00;;;10.90;99.90;;;;;;5068869;28;20067;-85
2023/03/13 07:14:06;;;;;;;10.10;3.40;;;11.00;99.90;;;;;;5068656;28;20040;-85
2023/03/13 07:16:32;;;;;;;8.05;3.15;;;11.00;99.90;;;;;;5084819;28;20040;-85
2023/03/13 07:18:59;;;;;;;7.05;3.03;;;11.00;99.90;;;;;;5086808;28;20048;-85
2023/03/13 07:21:26;;;;;;;10.57;3.35;;;11.00;99.90;;;;;;5072200;28;20064;-84
2023/03/13 07:23:53;;;;;;;7.28;2.50;;;11.10;99.90;;;;;;5088884;28;20048;-84
2023/03/13 07:26:19;;;;;;;10.82;3.40;;;11.00;99.90;;;;;;5105855;28;20037;-84
2023/03/13 07:28:46;;;;;;;12.02;3.45;;;11.00;99.90;;;;;;5055966;28;20067;-84
2023/03/13 07:31:18;;;;;;;11.02;4.05;;;11.10;99.90;;;;;;5055947;28;20036;-85
2023/03/13 07:33:46;;;;;;;8.45;3.20;;;11.10;99.90;;;;;;5072542;28;20079;-84
2023/03/13 07:36:14;;;;;;;10.05;4.25;;;11.10;99.90;;;;;;5056109;28;20043;-85
2023/03/13 07:38:42;;;;;;;10.60;3.60;;;11.10;99.90;;;;;;5088847;28;20571;-85
2023/03/13 07:41:14;;;;;;;11.07;3.38;;;11.10;99.90;;;;;;5072754;28;20041;-85
2023/03/13 07:43:43;;;;;;;8.80;2.97;;;11.10;99.90;;;;;;5089189;28;20045;-84
2023/03/13 07:46:13;;;;;;;9.30;3.03;;;11.10;99.90;;;;;;5055861;28;20120;-84
2023/03/13 07:48:41;;;;;;;6.40;2.33;;;11.10;99.90;;;;;;5072069;28;20094;-84
2023/03/13 07:51:12;;;;;;;6.63;2.80;;;11.10;99.90;;;;;;5055552;28;20038;-85
2023/03/13 07:53:39;;;;;;;8.63;2.83;;;11.10;99.90;;;;;;5071682;28;20124;-85
2023/03/13 07:56:11;;;;;;;8.48;2.72;;;11.10;99.90;;;;;;5072182;28;20128;-85
2023/03/13 07:58:42;;;;;;;9.77;2.65;;;11.10;99.90;;;;;;5071648;28;20047;-85
2023/03/13 08:01:09;;;;;;;10.10;2.83;;;11.20;99.90;;;;;;5055665;28;20040;-85
2023/03/13 08:03:37;;;;;;;12.52;2.97;;;11.10;99.90;;;;;;5055133;28;20043;-83
2023/03/13 08:06:09;;;;;;;4.28;2.28;;;11.20;99.90;;;;;;5070472;28;20073;-82
2023/03/13 08:08:37;;;;;;;5.93;2.38;;;11.20;99.90;;;;;;5069925;28;20535;-82
2023/03/13 08:11:10;;;;;;;11.30;2.70;;;11.20;99.90;;;;;;5087188;28;20448;-83
2023/03/13 08:13:37;;;;;;;9.55;2.75;;;11.20;99.90;;;;;;5071534;28;20041;-83
2023/03/13 08:16:10;;;;;;;4.97;2.65;;;11.10;99.90;;;;;;5071934;28;20033;-83
2023/03/13 08:18:39;;;;;;;8.57;2.50;;;11.10;99.90;;;;;;5071238;28;20045;-83
2023/03/13 08:21:08;;;;;;;4.15;2.17;;;11.10;99.90;;;;;;5071323;28;20509;-83
2023/03/13 08:23:35;;;;;;;5.88;2.08;;;11.20;99.90;;;;;;5070966;28;20045;-82
2023/03/13 08:26:17;;;;;;;5.78;2.25;;;11.20;99.90;;;;;;5087506;28;22506;-82
2023/03/13 08:28:45;;;;;;;4.70;2.08;;;11.20;99.90;;;;;;5103597;28;20036;-83
2023/03/13 08:31:13;;;;;;;6.55;1.98;;;11.10;99.90;;;;;;5103752;28;20041;-82
2023/03/13 08:33:42;;;;;;;5.35;2.17;;;11.20;99.90;;;;;;5103690;28;20094;-82
2023/03/13 08:36:12;;;;;;;7.30;2.05;;;11.10;99.90;;;;;;5071168;28;20045;-83
2023/03/13 08:38:41;;;;;;;4.80;2.00;;;11.10;99.90;;;;;;5087513;28;20041;-82
2023/03/13 08:41:07;;;;;;;6.30;1.63;;;11.10;99.90;;;;;;5104430;28;20064;-82
2023/03/13 08:43:34;;;;;;;4.88;1.40;;;11.10;99.90;;;;;;5086524;28;20041;-82
2023/03/13 08:46:02;;;;;;;3.00;1.45;;;11.10;99.90;;;;;;5103142;28;20157;-82
2023/03/13 08:48:29;;;;;;;6.20;1.30;;;11.40;99.90;;;;;;5070169;28;20040;-83
2023/03/13 08:51:03;;;;;;;14.23;1.50;;;11.20;99.90;;;;;;5086586;28;20040;-83
2023/03/13 08:53:31;;;;;;;3.88;1.13;;;11.30;99.90;;;;;;5102793;28;20053;-82
2023/03/13 08:55:58;;;;;;;2.92;1.20;;;11.40;99.90;;;;;;5086676;28;20048;-82
2023/03/13 08:58:25;;;;;;;3.42;1.05;;;11.50;99.90;;;;;;5086787;28;20033;-83
2023/03/13 09:00:51;;;;;;;4.82;1.20;;;11.50;99.90;;;;;;5086337;28;20041;-82
2023/03/13 09:03:18;;;;;;;2.25;1.13;;;11.60;99.90;;;;;;5069788;28;20048;-81
2023/03/13 09:05:46;;;;;;;5.88;1.20;;;11.70;99.90;;;;;;5103313;28;20037;-82
2023/03/13 09:08:14;;;;;;;2.88;1.10;;;11.70;99.90;;;;;;5086670;28;20033;-82
2023/03/13 09:10:41;;;;;;;8.65;1.30;;;11.80;99.90;;;;;;5086496;28;20543;-82
2023/03/13 09:13:07;;;;;;;2.88;1.15;;;11.80;99.90;;;;;;5103042;28;20037;-82
2023/03/13 09:15:34;;;;;;;2.58;1.50;;;11.90;99.90;;;;;;5103622;28;20489;-82
2023/03/13 09:18:01;;;;;;;4.65;1.50;;;12.00;99.90;;;;;;5069480;28;20053;-81
2023/03/13 09:20:28;;;;;;;4.60;1.58;;;12.10;99.90;;;;;;5086266;28;20037;-82
2023/03/13 09:22:54;;;;;;;4.38;1.50;;;12.10;99.90;;;;;;5086043;28;20552;-82
2023/03/13 09:25:21;;;;;;;5.80;1.77;;;12.20;99.90;;;;;;5069447;28;20045;-82
2023/03/13 09:27:48;;;;;;;3.55;1.42;;;12.30;99.90;;;;;;5069417;28;20038;-81
2023/03/13 09:30:15;;;;;;;4.55;1.52;;;12.30;99.90;;;;;;5086267;28;20425;-81
2023/03/13 09:32:41;;;;;;;7.60;1.88;;;12.30;99.90;;;;;;5085493;28;20048;-81
2023/03/13 09:35:08;;;;;;;4.65;1.40;;;12.30;99.90;;;;;;5086036;28;20037;-82
2023/03/13 09:37:35;;;;;;;3.85;1.40;;;12.20;99.90;;;;;;5086071;28;20041;-81
2023/03/13 09:40:03;;;;;;;6.35;1.35;;;12.20;99.90;;;;;;5069655;28;20401;-81
2023/03/13 09:42:48;;;;;;;6.00;1.40;;;12.20;99.90;;;;;;5069249;28;20131;-81
2023/03/13 09:45:27;;;;;;;7.65;1.40;;;12.20;99.90;;;;;;5069978;28;20044;-82
2023/03/13 09:47:57;;;;;;;4.80;1.45;;;12.10;99.90;;;;;;5086124;28;20518;-82
2023/03/13 09:50:35;;;;;;;3.65;1.48;;;12.10;99.90;;;;;;5069938;28;20155;-81
2023/03/13 09:53:13;;;;;;;7.70;1.50;;;11.90;99.90;;;;;;5085716;28;20510;-82
2023/03/13 09:55:43;;;;;;;6.05;1.33;;;11.90;99.90;;;;;;5102413;28;20094;-79
2023/03/13 09:58:16;;;;;;;6.82;1.75;;;11.80;99.90;;;;;;5069148;28;20408;-82
2023/03/13 10:00:50;;;;;;;6.82;1.90;;;11.80;99.90;;;;;;5069318;28;20048;-83
2023/03/13 10:03:22;;;;;;;3.30;1.67;;;11.80;99.90;;;;;;5069425;28;20052;-82
2023/03/13 10:05:52;;;;;;;7.38;1.90;;;11.80;99.90;;;;;;5069147;28;20818;-80
2023/03/13 10:08:23;;;;;;;3.53;1.38;;;11.80;99.90;;;;;;5085493;28;20045;-79
2023/03/13 10:11:11;;;;;;;5.30;1.75;;;12.00;99.90;;;;;;5068178;28;20052;-79
2023/03/13 10:13:45;;;;;;;4.85;1.65;;;12.20;99.90;;;;;;5102366;28;20124;-80
2023/03/13 10:16:23;;;;;;;5.60;1.55;;;12.50;99.90;;;;;;5102372;28;20063;-80
2023/03/13 10:18:55;;;;;;;8.18;2.00;;;12.60;99.90;;;;;;5069629;28;20493;-81
2023/03/13 10:21:31;;;;;;;4.65;1.50;;;12.80;99.90;;;;;;5086258;28;20097;-81
2023/03/13 10:24:34;;;;;;;4.82;1.55;;;13.00;99.90;;;;;;5069093;28;20131;-81
2023/03/13 10:27:01;;;;;;;6.25;1.88;;;13.10;99.90;;;;;;5066648;28;20045;-80
2023/03/13 10:29:31;;;;;;;8.10;1.30;;;13.10;99.90;;;;;;5084954;28;20037;-80
2023/03/13 10:32:03;;;;;;;7.22;1.73;;;13.10;99.90;;;;;;5085184;28;20092;-81
2023/03/13 10:35:02;;;;;;;4.50;1.52;;;13.00;99.90;;;;;;5068889;28;20090;-81
2023/03/13 10:37:31;;;;;;;5.05;1.40;;;13.10;99.90;;;;;;5102276;28;20047;-81
2023/03/13 10:40:23;;;;;;;7.63;1.80;;;13.10;99.90;;;;;;5068319;28;20762;-81
2023/03/13 10:42:53;;;;;;;3.22;1.00;;;13.10;99.90;;;;;;5117707;28;20060;-80
2023/03/13 10:45:21;;;;;;;5.25;1.20;;;13.10;99.90;;;;;;5068706;28;20087;-80
2023/03/13 10:47:59;;;;;;;7.30;1.58;;;13.20;99.90;;;;;;5051485;28;20041;-80
2023/03/13 10:50:31;;;;;;;6.80;1.73;;;13.20;99.90;;;;;;5085076;28;20402;-80
2023/03/13 10:53:18;;;;;;;5.32;1.85;;;13.20;99.90;;;;;;5084646;28;20045;-80
2023/03/13 10:55:45;;;;;;;9.38;1.60;;;13.40;99.90;;;;;;5073231;28;20044;-82
2023/03/13 10:58:43;;;;;;;6.45;1.50;;;13.40;99.90;;;;;;5072375;28;20051;-81
2023/03/13 11:01:28;;;;;;;6.97;1.48;;;13.40;99.90;;;;;;5098242;28;20118;-82
2023/03/13 11:03:57;;;;;;;6.18;1.38;;;13.40;99.90;;;;;;5070936;28;20037;-82
2023/03/13 11:06:30;;;;;;;5.57;1.42;;;13.50;99.90;;;;;;5055806;28;20091;-82
2023/03/13 11:09:08;;;;;;;7.55;1.58;;;13.50;99.90;;;;;;5072397;28;20043;-82
2023/03/13 11:12:08;;;;;;;7.70;1.77;;;13.50;99.90;;;;;;5105746;28;20148;-82
2023/03/13 11:14:35;;;;;;;9.32;1.40;;;13.50;99.90;;;;;;5077792;28;20079;-82
2023/03/13 11:17:20;;;;;;;9.30;1.42;;;13.50;99.90;;;;;;5089087;28;20045;-82
2023/03/13 11:20:07;;;;;;;5.97;1.55;;;13.60;99.90;;;;;;5106404;28;20048;-82
2023/03/13 11:22:52;;;;;;;7.32;2.70;;;13.50;99.90;;;;;;5078399;28;20073;-82
2023/03/13 11:25:31;;;;;;;8.10;1.88;;;13.50;99.90;;;;;;5072747;28;20603;-81
2023/03/13 11:28:06;;;;;;;4.18;1.10;;;13.50;99.90;;;;;;5071487;28;20183;-81
2023/03/13 11:30:57;;;;;;;6.68;1.20;;;13.50;99.90;;;;;;5106320;28;20037;-82
2023/03/13 11:33:34;;;;;;;7.32;1.50;;;13.60;99.90;;;;;;5072171;28;20429;-81
2023/03/13 11:36:06;;;;;;;6.68;1.45;;;13.60;99.90;;;;;;5104856;28;20037;-81
2023/03/13 11:38:40;;;;;;;9.13;1.60;;;13.70;99.90;;;;;;5105378;28;20041;-82
2023/03/13 11:41:39;;;;;;;5.50;1.40;;;13.80;99.90;;;;;;5105208;28;20470;-82
2023/03/13 11:44:11;;;;;;;7.65;1.23;;;13.90;99.90;;;;;;5104719;28;20049;-81
2023/03/13 11:46:41;;;;;;;12.45;1.63;;;14.00;99.90;;;;;;5104942;28;20095;-81
2023/03/13 11:49:35;;;;;;;3.15;1.00;;;14.10;99.90;;;;;;5105048;28;20033;-81
2023/03/13 11:52:11;;;;;;;6.50;1.23;;;14.20;99.90;;;;;;5088375;28;20041;-81
2023/03/13 11:54:50;;;;;;;4.47;1.20;;;14.20;99.90;;;;;;5104994;28;20489;-82
2023/03/13 11:57:58;;;;;;;4.60;1.90;;;14.30;99.90;;;;;;5088197;28;20037;-82
2023/03/13 12:00:43;;;;;;;2.63;1.10;;;14.30;99.90;;;;;;5076690;28;20049;-81
2023/03/13 12:03:38;;;;;;;4.93;1.35;;;14.30;99.90;;;;;;5071442;28;20044;-81
2023/03/13 12:06:15;;;;;;;5.43;1.42;;;14.40;99.90;;;;;;5087245;28;20072;-82
2023/03/13 12:08:47;;;;;;;2.28;0.95;;;14.30;99.90;;;;;;5071739;28;20045;-82
2023/03/13 12:11:48;;;;;;;4.10;1.20;;;14.30;99.90;;;;;;5071450;28;20520;-81
2023/03/13 12:14:36;;;;;;;3.28;1.08;;;14.20;99.90;;;;;;5104268;28;20487;-82
2023/03/13 12:17:21;;;;;;;4.00;1.48;;;14.30;99.90;;;;;;5071523;28;20509;-82
2023/03/13 12:19:52;;;;;;;3.70;1.27;;;14.50;99.90;;;;;;5104796;28;20049;-82
2023/03/13 12:22:26;;;;;;;6.40;1.35;;;14.70;99.90;;;;;;5071058;28;20053;-82
2023/03/13 12:25:04;;;;;;;5.38;1.20;;;14.80;99.90;;;;;;5071593;28;20493;-82
2023/03/13 12:27:41;;;;;;;6.80;1.20;;;14.80;99.90;;;;;;5071044;28;20073;-82
2023/03/13 12:30:11;;;;;;;2.60;1.02;;;14.80;99.90;;;;;;5121126;28;20029;-82
2023/03/13 12:32:49;;;;;;;5.90;1.38;;;14.90;99.90;;;;;;5104304;28;20036;-81
2023/03/13 12:35:28;;;;;;;2.47;1.08;;;14.80;99.90;;;;;;5104432;28;20127;-82
2023/03/13 12:38:37;;;;;;;5.30;1.20;;;14.70;99.90;;;;;;5087861;28;20041;-82
2023/03/13 12:41:24;;;;;;;8.18;1.33;;;14.60;99.90;;;;;;5071406;28;20516;-81
2023/03/13 12:43:53;;;;;;;4.53;0.90;;;14.50;99.90;;;;;;5087691;28;20076;-82
2023/03/13 12:46:46;;;;;;;4.50;1.17;;;14.40;99.90;;;;;;5103888;28;20053;-82
2023/03/13 12:49:34;;;;;;;6.57;1.40;;;14.40;99.90;;;;;;5087028;28;20394;-82
2023/03/13 12:52:03;;;;;;;6.90;1.17;;;14.50;99.90;;;;;;5104032;28;20119;-82
2023/03/13 12:54:46;;;;;;;5.60;1.42;;;14.50;99.90;;;;;;5104004;28;20044;-82
2023/03/13 12:57:47;;;;;;;5.22;1.25;;;14.50;99.90;;;;;;5103752;28;20041;-82
2023/03/13 13:00:19;;;;;;;5.03;1.10;;;14.50;99.90;;;;;;5103539;28;20110;-82
2023/03/13 13:02:46;;;;;;;5.28;1.05;;;14.50;99.90;;;;;;5104132;28;20497;-82
2023/03/13 13:05:21;;;;;;;3.10;1.15;;;14.50;99.90;;;;;;5070422;28;20463;-82
2023/03/13 13:07:55;;;;;;;5.88;1.23;;;14.40;99.90;;;;;;5086812;28;20123;-82
2023/03/13 13:10:25;;;;;;;8.10;1.50;;;14.40;99.90;;;;;;5070572;28;20033;-82